Wells Municipal-Harriet, NV

10:49 AM PST on January 28, 2015 (GMT -0800)
Elko Regional | Change Station
CLOSE
Current Station
Airport
Location: Elko,
Elevation: 5052 ft
Nearby Weather Stations

Elev 5052 ft 40.82 °N, 115.79 °W | Updated 53 minutes ago

Partly Cloudy
Partly Cloudy
45 °F
Feels Like 41 °F
N
8
Wind Variable Wind from SW

Today
High -- | Low -- °F
--% Chance of Precip.
Yesterday
High -- | Low -- °F
Precip. -- in
6:54 AM 4:51 PM
Waxing Gibbous, 67% visible
Pressure 30.35 in
Visibility 10.0 miles
Clouds Clear
Windchill 41 °F
Dew Point 37 °F
Humidity 74%
Rainfall 0.00 in
Snow Depth Not available.
UV 2 out of 12
Pollen .30 out of 12
Air Quality Not available.
Flu Activity Not available.
METAR KEKO 281756Z AUTO 22007KT 10SM CLR 07/03 A3034 RMK AO2 SLP277 T00720028 10072 20022 51008

More Conditions Fewer Conditions

Pressure 30.35 in
Visibility 10.0 miles
Clouds Clear
Windchill 41 °F
Dew Point 37 °F
Humidity 74%
Rainfall 0.00 in
Snow Depth Not available.
UV 2 out of 12
Pollen .30 out of 12
Air Quality Not available.
Flu Activity Not available.
METAR KEKO 281756Z AUTO 22007KT 10SM CLR 07/03 A3034 RMK AO2 SLP277 T00720028 10072 20022 51008

More Conditions Fewer Conditions

10-Day Weather Forecast

Almanac

Astronomy

Jan. 28, 2015 Rise Set
Actual Time
Civil Twilight
Nautical Twilight
Astronomical Twilight
Moon
Length of Visible Light
Length of Day
Tomorrow will be .
, % of the Moon is Illuminated

Today's Extremes

State Highs State Lows

Community

WunderPhotos

Upload Photos

1,791,241 photos uploaded!

WunderBlogs® & News

Nearby

Air Quality

  Air Quality AQ Index Pollutant
Not available.

Snow Depth

Station Depth Elevation

Earthquake Activity

City Distance Mag. Time & Date
Minimum magnitude displayed is 2.5.

Coastal Water Temperatures

Place Temperature

Nearby Weather Stations